KCGF/CGF METAR and TAF weather

Enter ICAO airport designator
Station Type Date Time Source
KCGF METAR 2020/11/25 22:45 UTC NOAA

KCGF 252245Z 19010G20KT 10SM BKN017 OVC030 10/08 A2987


Station Type Date Time Source
KCGF Decoded METAR 2020/11/25 22:45 UTC NOAA

Cleveland / Cuyahoga, OH, United States (KCGF) 41-34N 081-29W
Nov 25, 2020 - 05:45 PM EST / 2020.11.25 2245 UTC
Wind: from the S (190 degrees) at 12 MPH (10 KT) gusting to 23 MPH (20 KT):0
Visibility: 10 mile(s):0
Sky conditions: overcast
Temperature: 50 F (10 C)
Dew Point: 46 F (8 C)
Relative Humidity: 87%
Pressure (altimeter): 29.87 in. Hg (1011 hPa)
ob: KCGF 252245Z 19010G20KT 10SM BKN017 OVC030 10/08 A2987
cycle: 23

Station Type Date Time Source
KCGF TAF 2016/07/19 12:36 UTC NOAA

TAF KCGF 191136Z 1912/2012 VRB05KT P6SM SCT080
FM191400 33008KT P6SM SCT040
FM191900 35008KT P6SM SCT060
FM200000 04003KT P6SM SCT080
FM200700 14003KT P6SM SKC

Example: see airport list